createdAt,value
2019-05-17T00:01:16.638Z,76.71
2019-05-17T00:03:56.396Z,76.62
2019-05-17T00:06:27.534Z,77.21
2019-05-17T00:08:58.456Z,77.15
2019-05-17T00:11:28.981Z,76.34
2019-05-17T00:13:59.726Z,76.82
2019-05-17T00:16:34.173Z,76.99
2019-05-17T00:19:04.775Z,77.14
2019-05-17T00:21:38.933Z,76.88
2019-05-17T00:24:09.735Z,76.78
2019-05-17T00:26:40.564Z,76.36
2019-05-17T00:29:11.224Z,76.74
2019-05-17T00:31:43.443Z,76.67
2019-05-17T00:34:16.774Z,77.26
2019-05-17T00:36:47.816Z,77.21
2019-05-17T00:39:18.545Z,76.25
2019-05-17T00:41:49.244Z,76.20
2019-05-17T00:44:19.929Z,76.28
2019-05-17T00:46:50.509Z,75.84
2019-05-17T00:49:22.093Z,76.80
2019-05-17T00:51:53.782Z,76.54
2019-05-17T00:54:26.783Z,76.73
2019-05-17T00:57:03.404Z,76.15
2019-05-17T00:59:34.171Z,76.61
2019-05-17T01:02:06.864Z,76.82
2019-05-17T01:04:37.338Z,77.02
2019-05-17T01:07:08.026Z,76.59
2019-05-17T01:09:38.534Z,76.81
2019-05-17T01:12:10.313Z,76.57
2019-05-17T01:14:41.076Z,76.35
2019-05-17T01:17:11.666Z,76.56
2019-05-17T01:19:42.244Z,76.20
2019-05-17T01:22:13.974Z,75.62
2019-05-17T01:24:46.295Z,76.81
2019-05-17T01:27:18.005Z,76.52
2019-05-17T01:29:48.610Z,75.98
2019-05-17T01:32:19.315Z,77.06
2019-05-17T01:34:56.311Z,76.84
2019-05-17T01:37:27.687Z,76.69
2019-05-17T01:39:58.488Z,76.20
2019-05-17T01:42:29.269Z,76.69
2019-05-17T01:45:09.580Z,76.64
2019-05-17T01:47:40.260Z,75.86
2019-05-17T01:50:11.494Z,76.04
2019-05-17T01:52:42.114Z,76.61
2019-05-17T01:55:12.794Z,76.79
2019-05-17T01:57:43.513Z,75.50
2019-05-17T02:00:17.760Z,76.91
2019-05-17T02:02:53.554Z,76.49
2019-05-17T02:05:27.512Z,77.29
2019-05-17T02:08:17.088Z,76.80
2019-05-17T02:10:48.003Z,76.69
2019-05-17T02:13:20.572Z,77.18
2019-05-17T02:15:51.209Z,76.31
2019-05-17T02:18:22.825Z,77.12
2019-05-17T02:20:53.539Z,76.60
2019-05-17T02:23:24.363Z,77.35
2019-05-17T02:25:57.187Z,76.81
2019-05-17T02:28:28.995Z,76.85
2019-05-17T02:31:03.574Z,77.10
2019-05-17T02:33:37.349Z,77.19
2019-05-17T02:36:08.036Z,76.10
2019-05-17T02:38:38.723Z,76.22
2019-05-17T02:41:09.401Z,75.85
2019-05-17T02:43:43.181Z,75.87
2019-05-17T02:46:13.909Z,76.34
2019-05-17T02:48:44.659Z,76.67
2019-05-17T02:51:15.419Z,76.52
2019-05-17T02:53:46.097Z,76.48
2019-05-17T02:56:16.781Z,76.66
2019-05-17T02:58:47.529Z,76.36
2019-05-17T03:01:19.270Z,75.88
2019-05-17T03:03:55.819Z,76.37
2019-05-17T03:06:26.580Z,76.37
2019-05-17T03:08:57.149Z,75.94
2019-05-17T03:11:27.933Z,76.75
2019-05-17T03:13:58.522Z,76.64
2019-05-17T03:16:29.371Z,76.39
2019-05-17T03:19:03.803Z,75.88
2019-05-17T03:21:33.721Z,76.84
2019-05-17T03:24:04.957Z,76.78
2019-05-17T03:26:35.624Z,76.61
2019-05-17T03:29:06.209Z,76.89
2019-05-17T03:31:44.812Z,76.35
2019-05-17T03:34:16.589Z,77.00
2019-05-17T03:36:46.654Z,76.80
2019-05-17T03:39:16.610Z,76.18
2019-05-17T03:41:47.383Z,76.58
2019-05-17T03:44:25.150Z,76.19
2019-05-17T03:46:55.845Z,75.97
2019-05-17T03:49:26.507Z,76.03
2019-05-17T03:51:57.202Z,75.13
2019-05-17T03:54:28.993Z,76.27
2019-05-17T03:57:02.675Z,76.02
2019-05-17T03:59:33.699Z,75.77
2019-05-17T04:02:04.431Z,76.61
2019-05-17T04:04:35.112Z,75.81
2019-05-17T04:07:17.313Z,75.91
2019-05-17T04:09:48.048Z,75.57
2019-05-17T04:12:18.767Z,75.57
2019-05-17T04:14:53.341Z,75.64
2019-05-17T04:17:23.110Z,76.05
2019-05-17T04:19:55.850Z,75.63
2019-05-17T04:22:33.295Z,75.31
2019-05-17T04:25:05.265Z,74.80
2019-05-17T04:27:35.888Z,74.77
2019-05-17T04:30:07.978Z,75.13
2019-05-17T04:32:38.774Z,75.47
2019-05-17T04:35:17.302Z,75.75
2019-05-17T04:37:47.889Z,75.04
2019-05-17T04:40:18.699Z,74.76
2019-05-17T04:42:52.440Z,74.78
2019-05-17T04:45:28.512Z,75.25
2019-05-17T04:47:59.245Z,75.30
2019-05-17T04:50:33.251Z,75.10
2019-05-17T04:53:05.386Z,75.18
2019-05-17T04:55:35.938Z,75.48
2019-05-17T04:58:16.830Z,74.71
2019-05-17T05:00:47.412Z,74.84
2019-05-17T05:03:18.146Z,75.12
2019-05-17T05:05:48.824Z,75.08
2019-05-17T05:08:22.433Z,75.53
2019-05-17T05:10:53.690Z,75.21
2019-05-17T05:13:24.665Z,75.75
2019-05-17T05:15:55.211Z,75.18
2019-05-17T05:18:25.893Z,74.06
2019-05-17T05:21:03.371Z,75.19
2019-05-17T05:23:33.055Z,75.28
2019-05-17T05:26:03.835Z,75.03
2019-05-17T05:28:34.512Z,75.27
2019-05-17T05:31:05.091Z,76.40
2019-05-17T05:33:36.942Z,75.03
2019-05-17T05:36:17.562Z,75.52
2019-05-17T05:38:48.280Z,74.53
2019-05-17T05:41:19.040Z,75.50
2019-05-17T05:43:49.785Z,75.97
2019-05-17T05:46:22.611Z,76.15
2019-05-17T05:48:53.266Z,74.59
2019-05-17T05:51:23.998Z,75.13
2019-05-17T05:53:54.930Z,74.95
2019-05-17T05:56:25.679Z,75.17
2019-05-17T05:58:56.339Z,75.56
2019-05-17T06:01:27.033Z,74.83
2019-05-17T06:03:58.740Z,74.78
2019-05-17T06:06:29.338Z,74.19
2019-05-17T06:09:05.973Z,73.34
2019-05-17T06:11:36.576Z,72.62
2019-05-17T06:14:13.296Z,73.11
2019-05-17T06:16:43.877Z,73.39
2019-05-17T06:19:14.500Z,72.89
2019-05-17T06:22:02.784Z,72.37
2019-05-17T06:24:33.591Z,72.33
2019-05-17T06:27:04.632Z,71.38
2019-05-17T06:29:41.366Z,71.61
2019-05-17T06:32:11.888Z,72.37
2019-05-17T06:34:43.688Z,72.30
2019-05-17T06:37:27.441Z,71.73
2019-05-17T06:39:59.060Z,71.55
2019-05-17T06:42:40.364Z,71.90
2019-05-17T06:45:06.899Z,72.54
2019-05-17T06:47:37.506Z,71.87
2019-05-17T06:50:08.242Z,71.24
2019-05-17T06:52:38.915Z,71.19
2019-05-17T06:55:12.806Z,70.96
2019-05-17T06:57:45.991Z,70.45
2019-05-17T07:00:20.835Z,71.30
2019-05-17T07:02:53.448Z,70.41
2019-05-17T07:05:25.869Z,71.55
2019-05-17T07:07:56.470Z,71.46
2019-05-17T07:10:27.299Z,72.03
2019-05-17T07:12:59.630Z,70.72
2019-05-17T07:15:43.388Z,71.87
2019-05-17T07:18:03.507Z,71.27
2019-05-17T07:20:34.551Z,71.27
2019-05-17T07:23:05.134Z,71.44
2019-05-17T07:25:35.820Z,70.94
2019-05-17T07:28:06.504Z,70.50
2019-05-17T07:30:40.038Z,70.57
2019-05-17T07:33:11.070Z,70.28
2019-05-17T07:35:41.753Z,70.57
2019-05-17T07:38:12.434Z,70.39
2019-05-17T07:40:43.003Z,69.84
2019-05-17T07:43:14.839Z,70.58
2019-05-17T07:45:45.788Z,70.79
2019-05-17T07:48:16.519Z,71.62
2019-05-17T07:50:47.176Z,71.22
2019-05-17T07:53:19.781Z,70.33
2019-05-17T07:55:50.610Z,69.37
2019-05-17T07:58:21.622Z,69.84
2019-05-17T08:00:52.459Z,70.48
2019-05-17T08:03:30.381Z,70.15
2019-05-17T08:06:03.224Z,69.58
2019-05-17T08:08:34.003Z,68.30
2019-05-17T08:11:06.713Z,68.32
2019-05-17T08:13:39.682Z,68.40
2019-05-17T08:16:10.410Z,67.47
2019-05-17T08:18:41.104Z,68.07
2019-05-17T08:21:11.703Z,67.38
2019-05-17T08:23:42.385Z,66.91
2019-05-17T08:26:13.075Z,66.67
2019-05-17T08:28:43.714Z,67.68
2019-05-17T08:31:14.330Z,67.90
2019-05-17T08:33:45.064Z,67.67
2019-05-17T08:36:16.764Z,67.18
2019-05-17T08:38:47.335Z,67.53
2019-05-17T08:41:20.623Z,66.77
2019-05-17T08:43:51.450Z,65.93
2019-05-17T08:46:22.346Z,65.98
2019-05-17T08:49:09.788Z,66.40
2019-05-17T08:51:40.584Z,66.68
2019-05-17T08:54:11.277Z,66.39
2019-05-17T08:56:41.951Z,66.81
2019-05-17T08:59:12.614Z,67.09
2019-05-17T09:01:43.289Z,67.19
2019-05-17T09:04:13.998Z,67.62
2019-05-17T09:06:50.462Z,66.75
2019-05-17T09:09:21.269Z,67.29
2019-05-17T09:11:51.806Z,67.55
2019-05-17T09:14:22.407Z,67.28
2019-05-17T09:17:00.635Z,67.61
2019-05-17T09:19:31.310Z,66.15
2019-05-17T09:22:01.974Z,65.49
2019-05-17T09:24:32.685Z,65.43
2019-05-17T09:27:03.378Z,66.21
2019-05-17T09:29:40.205Z,66.81
2019-05-17T09:32:10.416Z,65.53
2019-05-17T09:34:41.090Z,65.60
2019-05-17T09:37:14.569Z,65.30
2019-05-17T09:39:44.105Z,64.77
2019-05-17T09:42:14.823Z,64.86
2019-05-17T09:44:46.459Z,65.49
2019-05-17T09:47:20.448Z,65.80
2019-05-17T09:49:50.417Z,65.87
2019-05-17T09:52:21.106Z,66.61
2019-05-17T09:54:51.690Z,66.77
2019-05-17T09:57:22.307Z,66.16
2019-05-17T09:59:55.905Z,66.31
2019-05-17T10:02:25.276Z,66.15
2019-05-17T10:05:07.227Z,66.09
2019-05-17T10:07:40.393Z,66.92
2019-05-17T10:10:10.903Z,66.98
2019-05-17T10:12:44.562Z,66.58
2019-05-17T10:15:16.194Z,67.29
2019-05-17T10:17:46.845Z,65.84
2019-05-17T10:20:20.017Z,66.27
2019-05-17T10:22:50.755Z,67.35
2019-05-17T10:25:21.387Z,66.87
2019-05-17T10:27:52.176Z,66.34
2019-05-17T10:30:22.846Z,66.52
2019-05-17T10:32:53.516Z,65.90
2019-05-17T10:35:24.229Z,65.52
2019-05-17T10:37:54.938Z,66.15
2019-05-17T10:40:25.669Z,66.17
2019-05-17T10:42:56.250Z,66.08
2019-05-17T10:45:26.825Z,64.85
2019-05-17T10:47:57.415Z,65.29
2019-05-17T10:50:29.778Z,66.24
2019-05-17T10:53:00.770Z,65.45
2019-05-17T10:55:31.517Z,66.28
2019-05-17T10:58:02.174Z,66.46
2019-05-17T11:00:32.853Z,66.69
2019-05-17T11:03:03.655Z,66.58
2019-05-17T11:05:34.337Z,66.70
2019-05-17T11:08:05.067Z,66.75
2019-05-17T11:10:35.810Z,65.68
2019-05-17T11:13:08.539Z,65.33
2019-05-17T11:15:39.136Z,66.07
2019-05-17T11:18:09.933Z,66.20
2019-05-17T11:20:40.596Z,66.16
2019-05-17T11:23:11.219Z,66.38
2019-05-17T11:25:45.880Z,66.54
2019-05-17T11:28:17.183Z,66.79
2019-05-17T11:30:47.770Z,66.97
2019-05-17T11:33:19.497Z,66.79
2019-05-17T11:35:50.135Z,66.50
2019-05-17T11:38:20.899Z,66.60
2019-05-17T11:40:54.587Z,65.99
2019-05-17T11:43:25.235Z,65.80
2019-05-17T11:45:55.921Z,66.93
2019-05-17T11:48:28.566Z,67.32
2019-05-17T11:51:00.165Z,67.39
2019-05-17T11:53:30.860Z,67.52
2019-05-17T11:56:02.758Z,68.46
2019-05-17T11:58:33.278Z,68.76
2019-05-17T12:01:04.010Z,68.82
2019-05-17T12:03:40.251Z,69.03
2019-05-17T12:06:22.998Z,70.29
2019-05-17T12:08:53.744Z,69.81
2019-05-17T12:11:27.356Z,69.98
2019-05-17T12:13:58.028Z,70.25
2019-05-17T12:16:28.593Z,70.65
2019-05-17T12:19:00.130Z,71.14
2019-05-17T12:21:30.865Z,71.30
2019-05-17T12:24:02.453Z,72.00
2019-05-17T12:26:33.131Z,72.90
2019-05-17T12:29:04.802Z,73.52
2019-05-17T12:31:37.524Z,72.40
2019-05-17T12:34:11.249Z,73.25
2019-05-17T12:36:41.902Z,73.88
2019-05-17T12:39:13.640Z,75.13
2019-05-17T12:41:44.343Z,74.86
2019-05-17T12:44:14.955Z,76.70
2019-05-17T12:46:45.711Z,76.56
2019-05-17T12:49:19.518Z,76.01
2019-05-17T12:51:50.003Z,75.42
2019-05-17T12:54:21.657Z,76.06
2019-05-17T12:56:53.317Z,76.27
2019-05-17T12:59:24.101Z,75.20
2019-05-17T13:01:54.813Z,75.09
2019-05-17T13:04:29.472Z,74.60
2019-05-17T13:07:00.152Z,74.06
2019-05-17T13:09:30.842Z,76.74
2019-05-17T13:12:01.465Z,75.65
2019-05-17T13:14:34.153Z,77.01
2019-05-17T13:17:11.547Z,77.20
2019-05-17T13:19:42.256Z,77.14
2019-05-17T13:22:13.018Z,78.14
2019-05-17T13:24:43.831Z,78.64
2019-05-17T13:27:14.481Z,78.73
2019-05-17T13:29:45.228Z,77.76
2019-05-17T13:32:15.925Z,80.02
2019-05-17T13:34:46.626Z,79.83
2019-05-17T13:37:24.276Z,78.77
2019-05-17T13:39:54.877Z,79.60
2019-05-17T13:42:31.519Z,78.96
2019-05-17T13:45:08.588Z,78.92
2019-05-17T13:47:39.168Z,79.00
2019-05-17T13:50:11.403Z,79.52
2019-05-17T13:52:42.138Z,79.64
2019-05-17T13:55:17.694Z,79.66
2019-05-17T13:57:48.337Z,78.53
2019-05-17T14:00:19.177Z,79.20
2019-05-17T14:02:49.850Z,80.05
2019-05-17T14:05:20.575Z,80.57
2019-05-17T14:07:53.154Z,80.87
2019-05-17T14:10:27.254Z,79.90
2019-05-17T14:12:56.239Z,79.07
2019-05-17T14:15:30.411Z,79.88
2019-05-17T14:18:01.100Z,81.38
2019-05-17T14:20:31.956Z,80.23
2019-05-17T14:23:03.129Z,79.97
2019-05-17T14:25:33.892Z,79.32
2019-05-17T14:28:11.840Z,78.96
2019-05-17T14:30:42.537Z,79.14
2019-05-17T14:33:13.313Z,78.94
2019-05-17T14:35:44.152Z,78.89
2019-05-17T14:38:14.857Z,79.93
2019-05-17T14:41:05.863Z,79.22
2019-05-17T14:43:19.032Z,78.75
2019-05-17T14:45:49.656Z,80.85
2019-05-17T14:48:20.308Z,81.81
2019-05-17T14:50:51.945Z,80.14
2019-05-17T14:53:22.567Z,80.62
2019-05-17T14:55:53.439Z,80.11
2019-05-17T14:58:31.978Z,79.68
2019-05-17T15:01:04.073Z,80.16
2019-05-17T15:03:43.027Z,80.80
2019-05-17T15:06:13.811Z,80.99
2019-05-17T15:08:44.570Z,81.59
2019-05-17T15:11:17.320Z,81.76
2019-05-17T15:13:48.907Z,81.48
2019-05-17T15:16:21.661Z,81.38
2019-05-17T15:18:52.376Z,81.38
2019-05-17T15:21:23.392Z,82.61
2019-05-17T15:23:56.135Z,82.14
2019-05-17T15:26:28.863Z,81.11
2019-05-17T15:29:05.507Z,80.79
2019-05-17T15:31:36.283Z,81.33
2019-05-17T15:34:06.939Z,80.71
2019-05-17T15:36:40.703Z,81.13
2019-05-17T15:39:13.323Z,80.40
2019-05-17T15:41:44.060Z,81.23
2019-05-17T15:44:14.755Z,82.15
2019-05-17T15:46:50.379Z,81.52
2019-05-17T15:49:20.986Z,82.09
2019-05-17T15:51:51.715Z,82.82
2019-05-17T15:54:22.306Z,83.01
2019-05-17T15:56:52.907Z,82.79
2019-05-17T15:59:24.547Z,82.87
2019-05-17T16:01:55.312Z,82.96
2019-05-17T16:04:27.960Z,82.82
2019-05-17T16:06:58.764Z,83.58
2019-05-17T16:09:36.300Z,84.09
2019-05-17T16:12:07.072Z,82.76
2019-05-17T16:14:37.744Z,82.73
2019-05-17T16:17:08.508Z,82.72
2019-05-17T16:19:39.200Z,82.82
2019-05-17T16:22:09.963Z,83.29
2019-05-17T16:24:41.685Z,84.00
2019-05-17T16:27:15.431Z,84.50
2019-05-17T16:29:46.126Z,83.40
2019-05-17T16:32:16.884Z,82.96
2019-05-17T16:34:50.847Z,82.75
2019-05-17T16:37:21.542Z,83.04
2019-05-17T16:39:52.202Z,83.65
2019-05-17T16:42:24.876Z,83.26
2019-05-17T16:44:55.540Z,83.50
2019-05-17T16:47:28.272Z,83.17
2019-05-17T16:49:58.901Z,83.97
2019-05-17T16:52:29.574Z,83.82
2019-05-17T16:55:00.337Z,83.79
2019-05-17T16:57:31.979Z,83.77
2019-05-17T17:00:02.904Z,84.15
2019-05-17T17:02:33.577Z,84.57
2019-05-17T17:05:04.254Z,84.28
2019-05-17T17:07:39.295Z,84.56
2019-05-17T17:10:15.079Z,84.84
2019-05-17T17:12:45.742Z,84.69
2019-05-17T17:15:16.657Z,83.94
2019-05-17T17:17:52.436Z,84.78
2019-05-17T17:20:23.056Z,83.78
2019-05-17T17:22:53.885Z,84.17
2019-05-17T17:25:25.485Z,83.73
2019-05-17T17:27:59.724Z,84.89
2019-05-17T17:30:35.366Z,84.64
2019-05-17T17:33:06.060Z,84.75
2019-05-17T17:35:36.667Z,84.87
2019-05-17T17:38:07.440Z,85.00
2019-05-17T17:40:40.101Z,84.79
2019-05-17T17:43:10.895Z,84.77
2019-05-17T17:45:41.600Z,84.67
2019-05-17T17:48:13.206Z,84.30
2019-05-17T17:50:44.456Z,84.88
2019-05-17T17:53:15.309Z,84.67
2019-05-17T17:55:45.965Z,84.58
2019-05-17T17:58:16.730Z,84.77
2019-05-17T18:00:49.447Z,85.07
2019-05-17T18:03:23.250Z,84.25
2019-05-17T18:05:53.775Z,84.46
2019-05-17T18:08:27.964Z,84.51
2019-05-17T18:10:58.799Z,84.77
2019-05-17T18:13:29.486Z,84.87
2019-05-17T18:16:08.575Z,84.15
2019-05-17T18:18:40.087Z,84.90
2019-05-17T18:21:10.795Z,85.18
2019-05-17T18:23:42.501Z,85.28
2019-05-17T18:26:15.137Z,85.21
2019-05-17T18:28:45.920Z,85.32
2019-05-17T18:31:16.577Z,85.16
2019-05-17T18:33:47.340Z,85.27
2019-05-17T18:36:18.940Z,84.85
2019-05-17T18:39:05.178Z,85.07
2019-05-17T18:41:39.500Z,85.28
2019-05-17T18:44:10.186Z,85.50
2019-05-17T18:46:40.863Z,85.50
2019-05-17T18:49:11.564Z,85.53
2019-05-17T18:51:42.233Z,85.42
2019-05-17T18:54:13.500Z,85.50
2019-05-17T18:56:44.178Z,85.52
2019-05-17T18:59:16.862Z,85.70
2019-05-17T19:01:47.598Z,85.50
2019-05-17T19:04:20.241Z,85.53
2019-05-17T19:06:52.091Z,85.50
2019-05-17T19:09:23.210Z,85.48
2019-05-17T19:11:54.883Z,85.42
2019-05-17T19:14:25.530Z,85.39
2019-05-17T19:16:56.551Z,85.42
2019-05-17T19:19:28.386Z,85.25
2019-05-17T19:22:02.197Z,85.24
2019-05-17T19:24:32.861Z,85.21
2019-05-17T19:27:03.465Z,85.30
2019-05-17T19:29:34.225Z,85.30
2019-05-17T19:32:07.656Z,85.33
2019-05-17T19:34:39.358Z,85.43
2019-05-17T19:37:12.131Z,85.23
2019-05-17T19:39:43.029Z,84.96
2019-05-17T19:42:15.984Z,85.02
2019-05-17T19:44:58.750Z,85.04
2019-05-17T19:47:32.059Z,85.14
2019-05-17T19:50:02.937Z,85.16
2019-05-17T19:52:33.612Z,85.26
2019-05-17T19:55:14.834Z,85.33
2019-05-17T19:57:45.626Z,85.30
2019-05-17T20:00:24.335Z,85.10
2019-05-17T20:02:56.031Z,85.27
2019-05-17T20:05:26.745Z,85.34
2019-05-17T20:07:57.614Z,85.13
2019-05-17T20:10:31.624Z,84.90
2019-05-17T20:13:12.747Z,85.01
2019-05-17T20:16:06.156Z,84.85
2019-05-17T20:18:37.078Z,85.23
2019-05-17T20:21:14.227Z,85.08
2019-05-17T20:23:51.626Z,85.13
2019-05-17T20:26:25.789Z,85.24
2019-05-17T20:28:56.843Z,85.15
2019-05-17T20:32:01.141Z,84.81
2019-05-17T20:34:32.169Z,84.80
2019-05-17T20:37:02.930Z,84.68
2019-05-17T20:39:34.618Z,84.69
2019-05-17T20:42:05.316Z,84.40
2019-05-17T20:44:36.260Z,84.35
2019-05-17T20:47:06.939Z,84.37
2019-05-17T20:49:48.151Z,84.31
2019-05-17T20:52:19.914Z,84.31
2019-05-17T20:54:52.680Z,84.29
2019-05-17T20:57:23.321Z,84.15
2019-05-17T20:59:54.057Z,83.87
2019-05-17T21:02:24.913Z,84.09
2019-05-17T21:04:55.872Z,84.22
2019-05-17T21:07:26.556Z,83.94
2019-05-17T21:09:58.444Z,83.81
2019-05-17T21:12:29.526Z,83.79
2019-05-17T21:15:00.384Z,83.90
2019-05-17T21:17:32.477Z,83.94
2019-05-17T21:20:03.274Z,83.95
2019-05-17T21:22:34.189Z,83.65
2019-05-17T21:25:05.178Z,84.23
2019-05-17T21:27:36.095Z,84.14
2019-05-17T21:30:07.580Z,84.07
2019-05-17T21:32:38.435Z,83.87
2019-05-17T21:35:11.358Z,84.00
2019-05-17T21:37:42.182Z,83.56
2019-05-17T21:40:13.339Z,83.77
2019-05-17T21:42:44.445Z,83.86
2019-05-17T21:45:15.494Z,82.84
2019-05-17T21:47:46.393Z,83.34
2019-05-17T21:50:17.399Z,83.89
2019-05-17T21:52:48.415Z,83.89
2019-05-17T21:55:19.232Z,83.77
2019-05-17T21:57:50.395Z,83.31
2019-05-17T22:01:00.373Z,83.48
2019-05-17T22:03:33.775Z,83.70
2019-05-17T22:06:04.857Z,83.39
2019-05-17T22:08:35.774Z,83.56
2019-05-17T22:11:06.787Z,83.79
2019-05-17T22:13:37.635Z,83.07
2019-05-17T22:16:19.138Z,83.39
2019-05-17T22:18:42.935Z,83.20
2019-05-17T22:21:14.473Z,83.29
2019-05-17T22:23:47.260Z,82.78
2019-05-17T22:26:18.080Z,81.79
2019-05-17T22:28:50.183Z,80.81
2019-05-17T22:31:21.199Z,81.28
2019-05-17T22:33:52.366Z,81.37
2019-05-17T22:36:23.960Z,82.48
2019-05-17T22:38:55.054Z,82.70
2019-05-17T22:41:25.782Z,82.61
2019-05-17T22:43:56.586Z,82.46
2019-05-17T22:46:35.586Z,82.53
2019-05-17T22:48:59.786Z,80.85
2019-05-17T22:51:30.381Z,79.65
2019-05-17T22:54:01.160Z,81.43
2019-05-17T22:56:32.788Z,82.16
2019-05-17T22:59:03.839Z,81.59
2019-05-17T23:01:34.921Z,81.71
2019-05-17T23:04:05.746Z,81.94
2019-05-17T23:06:36.413Z,81.96
2019-05-17T23:09:07.464Z,82.26
2019-05-17T23:11:38.079Z,82.25
2019-05-17T23:14:08.690Z,82.44
2019-05-17T23:16:51.234Z,82.38
2019-05-17T23:19:11.953Z,81.84
2019-05-17T23:21:42.626Z,81.97
2019-05-17T23:24:14.279Z,82.53
2019-05-17T23:26:46.066Z,82.13
2019-05-17T23:29:41.355Z,82.22
2019-05-17T23:32:12.098Z,82.32
2019-05-17T23:34:42.733Z,82.44
2019-05-17T23:37:13.303Z,82.42
2019-05-17T23:39:43.921Z,82.04
2019-05-17T23:42:14.661Z,81.36
2019-05-17T23:44:45.291Z,81.48
2019-05-17T23:47:16.073Z,81.20
2019-05-17T23:49:46.784Z,80.84
2019-05-17T23:52:17.417Z,80.21
2019-05-17T23:54:50.095Z,80.46
2019-05-17T23:57:22.717Z,80.49
2019-05-17T23:59:53.788Z,80.86
